Time;durP1;ratioP1;P1;durP2;ratioP2;P2;SDS_P1;SDS_P2;PMS_P1;PMS_P2;Temp;Humidity;BMP_temperature;BMP_pressure;BME280_temperature;BME280_humidity;BME280_pressure;Samples;Min_cycle;Max_cycle;Signal;HPM_P1;HPM_P2
2024/02/07 00:01:36;;;;;;;7.20;3.90;;;8.70;99.90;;;;;;5021852;28;20277;-75
2024/02/07 00:04:03;;;;;;;6.77;4.30;;;8.70;99.90;;;;;;5042008;28;20286;-75
2024/02/07 00:06:29;;;;;;;4.20;3.80;;;8.70;99.90;;;;;;5039744;28;20359;-76
2024/02/07 00:08:55;;;;;;;5.37;3.70;;;8.70;99.90;;;;;;5036763;28;20454;-75
2024/02/07 00:11:21;;;;;;;5.37;3.80;;;8.70;99.90;;;;;;5039637;28;20459;-75
2024/02/07 00:13:47;;;;;;;6.07;4.63;;;8.70;99.90;;;;;;5021343;28;20434;-75
2024/02/07 00:16:14;;;;;;;4.93;3.90;;;8.80;99.90;;;;;;5039005;28;20250;-76
2024/02/07 00:18:39;;;;;;;7.30;4.87;;;8.80;99.90;;;;;;5022202;28;20468;-74
2024/02/07 00:21:06;;;;;;;6.93;4.00;;;8.70;99.90;;;;;;5045581;28;21114;-75
2024/02/07 00:23:32;;;;;;;6.90;4.70;;;8.70;99.90;;;;;;5043036;28;20480;-76
2024/02/07 00:25:58;;;;;;;7.50;4.97;;;8.80;99.90;;;;;;5051916;28;20482;-76
2024/02/07 00:28:24;;;;;;;6.93;5.33;;;8.70;99.90;;;;;;5051593;28;20537;-75
2024/02/07 00:30:49;;;;;;;9.70;5.87;;;8.70;99.90;;;;;;5049357;28;21085;-75
2024/02/07 00:33:15;;;;;;;5.70;4.10;;;8.80;99.90;;;;;;5049114;28;20239;-74
2024/02/07 00:35:41;;;;;;;13.07;5.43;;;8.80;99.90;;;;;;5046694;28;20354;-75
2024/02/07 00:38:07;;;;;;;10.67;5.00;;;8.80;99.90;;;;;;5064431;28;20540;-75
2024/02/07 00:40:33;;;;;;;9.40;6.37;;;8.80;99.90;;;;;;5041984;28;20462;-75
2024/02/07 00:42:59;;;;;;;6.60;4.23;;;8.80;99.90;;;;;;5042251;28;20216;-74
2024/02/07 00:45:25;;;;;;;8.37;5.03;;;8.80;99.90;;;;;;5041795;28;20216;-75
2024/02/07 00:47:51;;;;;;;8.90;5.80;;;8.80;99.90;;;;;;5019135;28;20232;-75
2024/02/07 00:50:17;;;;;;;8.03;5.07;;;8.80;99.90;;;;;;5046564;28;20533;-75
2024/02/07 00:52:43;;;;;;;6.50;4.80;;;8.90;99.90;;;;;;5041380;28;20867;-75
2024/02/07 00:55:10;;;;;;;5.73;4.10;;;8.90;99.90;;;;;;5041621;28;20450;-75
2024/02/07 00:57:36;;;;;;;15.37;5.70;;;8.90;99.90;;;;;;5041204;28;20284;-75
2024/02/07 01:00:03;;;;;;;7.80;5.13;;;8.90;99.90;;;;;;5019950;28;20459;-75
2024/02/07 01:02:28;;;;;;;9.50;5.90;;;8.90;99.90;;;;;;5038731;28;20220;-75
2024/02/07 01:04:54;;;;;;;8.40;4.40;;;8.90;99.90;;;;;;5043196;28;20499;-76
2024/02/07 01:07:20;;;;;;;9.70;5.00;;;8.90;99.90;;;;;;5043135;28;20288;-74
2024/02/07 01:09:46;;;;;;;9.03;5.07;;;8.90;99.90;;;;;;5026453;28;20219;-75
2024/02/07 01:12:11;;;;;;;9.10;5.20;;;8.90;99.90;;;;;;5034086;28;20304;-76
2024/02/07 01:14:37;;;;;;;8.80;4.73;;;8.90;99.90;;;;;;5026758;28;20208;-76
2024/02/07 01:17:03;;;;;;;11.57;5.80;;;8.90;99.90;;;;;;5035612;28;20228;-76
2024/02/07 01:19:29;;;;;;;10.57;5.10;;;9.00;99.90;;;;;;5024884;28;20242;-74
2024/02/07 01:21:55;;;;;;;11.80;5.70;;;8.90;99.90;;;;;;5051168;28;20232;-76
2024/02/07 01:24:21;;;;;;;10.40;5.70;;;8.90;99.90;;;;;;5025932;28;20303;-76
2024/02/07 01:26:47;;;;;;;8.93;5.53;;;8.90;99.90;;;;;;5039894;28;20538;-75
2024/02/07 01:29:13;;;;;;;7.87;5.30;;;8.90;99.90;;;;;;5043086;28;20288;-75
2024/02/07 01:31:39;;;;;;;8.40;4.50;;;8.90;99.90;;;;;;5033530;28;20535;-74
2024/02/07 01:34:04;;;;;;;8.10;4.90;;;8.90;99.90;;;;;;5035465;28;20239;-75
2024/02/07 01:36:30;;;;;;;9.23;5.47;;;8.90;99.90;;;;;;5045511;28;20580;-76
2024/02/07 01:38:56;;;;;;;7.97;6.43;;;8.90;99.90;;;;;;5038760;28;20224;-75
2024/02/07 01:41:31;;;;;;;7.30;4.97;;;8.90;99.90;;;;;;5046069;28;20208;-74
2024/02/07 01:43:57;;;;;;;8.97;5.80;;;8.90;99.90;;;;;;5026104;28;20212;-75
2024/02/07 01:46:23;;;;;;;10.63;6.00;;;8.90;99.90;;;;;;5041950;28;20601;-74
2024/02/07 01:48:49;;;;;;;7.93;6.37;;;8.90;99.90;;;;;;5040849;28;20227;-75
2024/02/07 01:51:16;;;;;;;9.00;5.27;;;8.90;99.90;;;;;;5041521;28;20446;-76
2024/02/07 01:53:42;;;;;;;11.43;6.13;;;8.90;99.90;;;;;;5047417;28;21197;-75
2024/02/07 01:56:10;;;;;;;10.23;5.70;;;8.90;99.90;;;;;;5014980;28;20460;-75
2024/02/07 01:58:36;;;;;;;11.40;5.57;;;8.90;99.90;;;;;;5046807;28;20496;-74
2024/02/07 02:01:03;;;;;;;11.27;5.70;;;8.90;99.90;;;;;;5035122;28;20451;-75
2024/02/07 02:03:28;;;;;;;11.90;6.43;;;8.90;99.90;;;;;;5033402;28;20476;-75
2024/02/07 02:05:55;;;;;;;10.70;5.80;;;8.90;99.90;;;;;;5042505;28;20458;-75
2024/02/07 02:08:22;;;;;;;11.20;5.63;;;8.90;99.90;;;;;;5050172;28;20270;-75
2024/02/07 02:10:51;;;;;;;10.70;5.70;;;8.90;99.90;;;;;;5044576;28;20462;-75
2024/02/07 02:13:17;;;;;;;6.70;4.90;;;8.90;99.90;;;;;;5043510;28;20578;-76
2024/02/07 02:15:46;;;;;;;9.43;5.63;;;8.90;99.90;;;;;;5023173;28;21021;-75
2024/02/07 02:18:12;;;;;;;8.97;5.83;;;8.90;99.90;;;;;;5045126;28;20498;-76
2024/02/07 02:20:38;;;;;;;11.73;6.37;;;8.90;99.90;;;;;;5047341;28;20496;-75
2024/02/07 02:23:29;;;;;;;7.90;4.90;;;8.90;99.90;;;;;;5036976;28;20647;-76
2024/02/07 02:26:11;;;;;;;8.70;4.83;;;8.90;99.90;;;;;;5038714;28;20455;-75
2024/02/07 02:29:09;;;;;;;7.70;5.10;;;8.90;99.90;;;;;;5043123;28;20573;-75
2024/02/07 02:31:37;;;;;;;8.83;4.90;;;8.90;99.90;;;;;;5015689;28;20459;-75
2024/02/07 02:34:05;;;;;;;8.60;5.40;;;8.90;99.90;;;;;;5031903;28;20450;-75
2024/02/07 02:36:31;;;;;;;7.00;4.87;;;8.90;99.90;;;;;;5045680;28;20531;-75
2024/02/07 02:38:57;;;;;;;7.43;5.10;;;8.90;99.90;;;;;;5046790;28;20473;-75
2024/02/07 02:41:23;;;;;;;8.93;6.00;;;8.90;99.90;;;;;;5047476;28;20455;-75
2024/02/07 02:43:49;;;;;;;8.70;5.57;;;8.90;99.90;;;;;;5049406;28;20239;-74
2024/02/07 02:46:15;;;;;;;6.03;4.80;;;8.90;99.90;;;;;;5043565;28;20224;-75
2024/02/07 02:48:40;;;;;;;5.83;4.47;;;8.90;99.90;;;;;;5039389;28;20458;-75
2024/02/07 02:51:06;;;;;;;12.00;5.30;;;9.00;99.90;;;;;;5047894;28;20744;-75
2024/02/07 02:53:32;;;;;;;9.33;5.00;;;8.90;99.90;;;;;;5029990;28;20228;-75
2024/02/07 02:55:59;;;;;;;9.50;4.60;;;8.90;99.90;;;;;;5048056;28;20458;-75
2024/02/07 02:58:29;;;;;;;5.77;4.23;;;8.90;99.90;;;;;;5031504;28;20680;-75
2024/02/07 03:01:03;;;;;;;5.57;4.30;;;8.90;99.90;;;;;;5038103;28;20504;-75
2024/02/07 03:03:31;;;;;;;8.50;4.33;;;8.90;99.90;;;;;;5048453;28;20516;-75
2024/02/07 03:06:00;;;;;;;8.27;5.20;;;8.90;99.90;;;;;;5046792;28;20523;-75
2024/02/07 03:08:53;;;;;;;7.93;4.90;;;8.90;99.90;;;;;;5046535;28;20554;-76
2024/02/07 03:11:15;;;;;;;8.13;4.43;;;8.90;99.90;;;;;;5048057;28;20845;-75
2024/02/07 03:13:41;;;;;;;7.57;4.87;;;8.90;99.90;;;;;;5044926;28;20484;-75
2024/02/07 03:16:07;;;;;;;8.20;5.03;;;8.90;99.90;;;;;;5025929;28;20227;-75
2024/02/07 03:18:34;;;;;;;8.37;4.30;;;9.00;99.90;;;;;;5029565;28;20712;-75
2024/02/07 03:21:08;;;;;;;10.33;4.20;;;8.90;99.90;;;;;;5042678;28;20545;-75
2024/02/07 03:23:34;;;;;;;5.83;3.87;;;8.90;99.90;;;;;;5047374;28;20457;-75
2024/02/07 03:26:01;;;;;;;7.73;4.63;;;8.90;99.90;;;;;;5044298;28;20545;-75
2024/02/07 03:28:27;;;;;;;5.67;4.90;;;8.80;99.90;;;;;;5045837;28;20466;-76
2024/02/07 03:30:53;;;;;;;8.13;4.80;;;8.80;99.90;;;;;;5047570;28;21002;-75
2024/02/07 03:33:19;;;;;;;7.10;4.40;;;8.80;99.90;;;;;;5049286;28;20462;-76
2024/02/07 03:35:45;;;;;;;6.37;4.50;;;8.80;99.90;;;;;;5030222;28;20212;-75
2024/02/07 03:38:12;;;;;;;9.13;4.43;;;8.80;99.90;;;;;;5049050;28;20239;-75
2024/02/07 03:40:38;;;;;;;5.40;4.40;;;8.90;99.90;;;;;;5049618;28;20552;-76
2024/02/07 03:43:03;;;;;;;12.00;4.67;;;8.90;99.90;;;;;;5046795;28;20462;-75
2024/02/07 03:45:33;;;;;;;6.73;4.77;;;8.90;99.90;;;;;;5046605;28;20581;-76
2024/02/07 03:48:00;;;;;;;7.07;4.03;;;8.90;99.90;;;;;;5047136;28;20231;-75
2024/02/07 03:50:25;;;;;;;7.90;4.40;;;8.90;99.90;;;;;;5030045;28;20493;-75
2024/02/07 03:52:52;;;;;;;6.07;4.57;;;8.90;99.90;;;;;;5037489;28;20469;-75
2024/02/07 03:55:18;;;;;;;7.10;4.63;;;9.00;99.90;;;;;;5026655;28;20223;-75
2024/02/07 03:57:44;;;;;;;6.90;4.50;;;8.90;99.90;;;;;;5062534;28;20548;-75
2024/02/07 04:00:13;;;;;;;6.90;3.87;;;8.90;99.90;;;;;;5048209;28;20474;-75
2024/02/07 04:02:45;;;;;;;6.50;4.50;;;9.00;99.90;;;;;;5047764;28;20211;-75
2024/02/07 04:05:11;;;;;;;7.77;5.10;;;8.90;99.90;;;;;;5040198;28;20447;-75
2024/02/07 04:07:37;;;;;;;7.23;4.37;;;8.90;99.90;;;;;;5044997;28;20458;-75
2024/02/07 04:10:05;;;;;;;10.43;5.77;;;9.00;99.90;;;;;;5047650;28;20212;-75
2024/02/07 05:17:36;;;;;;;8.20;6.03;;;8.90;99.90;;;;;;5045995;28;20492;-74
2024/02/07 05:20:02;;;;;;;8.47;5.00;;;8.90;99.90;;;;;;5049867;28;20223;-75
2024/02/07 05:22:28;;;;;;;6.50;5.00;;;8.90;99.90;;;;;;5074286;28;20215;-75
2024/02/07 05:24:54;;;;;;;9.63;6.33;;;8.90;99.90;;;;;;5059402;28;20458;-75
2024/02/07 05:27:20;;;;;;;10.13;5.70;;;8.90;99.90;;;;;;5041789;28;20232;-76
2024/02/07 05:29:46;;;;;;;9.63;6.50;;;8.90;99.90;;;;;;5031730;28;20211;-75
2024/02/07 05:32:12;;;;;;;10.90;5.77;;;8.90;99.90;;;;;;5029544;28;20512;-74
2024/02/07 05:34:37;;;;;;;6.63;5.30;;;8.90;99.90;;;;;;5032858;28;20307;-75
2024/02/07 05:37:03;;;;;;;7.60;5.10;;;8.90;99.90;;;;;;5046254;28;20228;-74
2024/02/07 05:39:37;;;;;;;9.30;5.80;;;8.80;99.90;;;;;;5049207;28;20223;-75
2024/02/07 05:42:03;;;;;;;9.70;5.87;;;8.90;99.90;;;;;;5057921;28;20476;-75
2024/02/07 05:44:29;;;;;;;7.63;5.20;;;8.90;99.90;;;;;;5036821;28;20453;-75
2024/02/07 05:46:54;;;;;;;9.60;5.30;;;8.90;99.90;;;;;;5049331;28;20220;-75
2024/02/07 05:49:21;;;;;;;9.13;5.93;;;8.90;99.90;;;;;;5049571;28;20254;-75
2024/02/07 05:51:57;;;;;;;8.10;4.57;;;8.90;99.90;;;;;;5042163;28;20219;-75
2024/02/07 05:54:26;;;;;;;11.70;5.77;;;8.90;99.90;;;;;;5050720;28;20462;-75
2024/02/07 05:56:52;;;;;;;10.50;6.03;;;9.00;99.90;;;;;;5057692;28;20454;-75
2024/02/07 05:59:19;;;;;;;7.17;5.23;;;9.00;99.90;;;;;;5050163;28;20840;-75
2024/02/07 06:01:45;;;;;;;9.80;5.40;;;9.00;99.90;;;;;;5050196;28;20464;-75
2024/02/07 06:04:11;;;;;;;7.93;5.60;;;8.90;99.90;;;;;;5044036;28;20450;-75
2024/02/07 06:06:37;;;;;;;7.27;5.30;;;8.90;99.90;;;;;;5034038;28;20458;-74
2024/02/07 06:09:05;;;;;;;9.37;4.87;;;8.90;99.90;;;;;;5061285;28;20234;-74
2024/02/07 06:11:41;;;;;;;6.20;4.47;;;8.90;99.90;;;;;;5046609;28;20458;-75
2024/02/07 06:14:08;;;;;;;6.57;4.60;;;8.90;99.90;;;;;;5060598;28;20457;-75
2024/02/07 06:16:34;;;;;;;7.23;4.50;;;9.00;99.90;;;;;;5056031;28;20873;-75
2024/02/07 06:19:00;;;;;;;5.50;4.30;;;8.90;99.90;;;;;;5041953;28;20462;-75
2024/02/07 06:21:26;;;;;;;9.50;4.70;;;8.90;99.90;;;;;;5050446;28;20504;-75
2024/02/07 06:23:53;;;;;;;9.50;5.03;;;8.90;99.90;;;;;;5060208;28;20948;-75
2024/02/07 06:26:18;;;;;;;7.13;4.47;;;9.00;99.90;;;;;;5054903;28;20212;-75
2024/02/07 06:28:47;;;;;;;5.50;4.50;;;9.00;99.90;;;;;;5033035;28;20842;-76
2024/02/07 06:31:13;;;;;;;7.53;5.00;;;9.00;99.90;;;;;;5051831;28;20214;-75
2024/02/07 06:33:39;;;;;;;7.93;4.90;;;9.00;99.90;;;;;;5047905;28;20455;-74
2024/02/07 06:36:05;;;;;;;13.07;5.30;;;9.00;99.90;;;;;;5042295;28;20273;-75
2024/02/07 06:38:31;;;;;;;5.03;4.30;;;9.00;99.90;;;;;;5050892;28;21014;-75
2024/02/07 06:40:56;;;;;;;6.60;4.10;;;9.00;99.90;;;;;;5050439;28;20455;-76
2024/02/07 06:43:22;;;;;;;10.33;4.27;;;9.00;99.90;;;;;;5038462;28;20215;-75
2024/02/07 06:45:48;;;;;;;6.67;4.53;;;9.00;99.90;;;;;;5045656;28;20220;-75
2024/02/07 06:48:13;;;;;;;6.97;4.40;;;9.00;99.90;;;;;;5054381;28;20215;-75
2024/02/07 06:50:39;;;;;;;6.87;4.63;;;9.00;99.90;;;;;;5059897;28;20428;-75
2024/02/07 06:53:05;;;;;;;7.70;4.73;;;9.00;99.90;;;;;;5049856;28;20304;-75
2024/02/07 06:55:31;;;;;;;8.97;4.30;;;9.00;99.90;;;;;;5045693;28;20239;-75
2024/02/07 06:57:57;;;;;;;9.17;4.77;;;9.00;99.90;;;;;;5066006;28;20223;-76
2024/02/07 07:00:23;;;;;;;5.50;3.80;;;9.00;99.90;;;;;;5049752;28;20485;-75
2024/02/07 07:02:49;;;;;;;6.10;3.90;;;9.00;99.90;;;;;;5038642;28;20227;-75
2024/02/07 07:05:14;;;;;;;10.00;4.33;;;9.00;99.90;;;;;;5049448;28;20215;-75
2024/02/07 07:07:40;;;;;;;3.90;3.47;;;9.10;99.90;;;;;;5036520;28;20244;-75
2024/02/07 07:10:06;;;;;;;6.83;3.70;;;9.00;99.90;;;;;;5034427;28;20220;-76
2024/02/07 07:12:32;;;;;;;4.70;3.17;;;9.00;99.90;;;;;;5033112;28;20212;-76
2024/02/07 07:14:58;;;;;;;9.10;3.80;;;9.00;99.90;;;;;;5048151;28;20964;-76
2024/02/07 07:17:23;;;;;;;5.50;3.93;;;9.10;99.90;;;;;;5048993;28;20305;-76
2024/02/07 07:19:49;;;;;;;4.93;3.30;;;9.10;99.90;;;;;;5040593;28;20216;-75
2024/02/07 07:22:15;;;;;;;4.30;3.10;;;9.10;99.90;;;;;;5058567;28;20215;-75
2024/02/07 07:24:41;;;;;;;8.67;3.57;;;9.10;99.90;;;;;;5046314;28;20215;-76
2024/02/07 07:27:07;;;;;;;4.30;3.23;;;9.10;99.90;;;;;;5046050;28;20462;-76
2024/02/07 07:29:32;;;;;;;4.37;3.43;;;9.20;99.90;;;;;;5046341;28;20260;-76
2024/02/07 07:32:00;;;;;;;5.37;3.60;;;9.10;99.90;;;;;;5047221;28;20224;-76
2024/02/07 07:34:26;;;;;;;3.13;2.77;;;9.20;99.90;;;;;;5053849;28;20297;-76
2024/02/07 07:36:52;;;;;;;6.10;3.67;;;9.20;99.90;;;;;;5035245;28;20964;-76
2024/02/07 07:39:19;;;;;;;7.90;3.47;;;9.20;99.90;;;;;;5034491;28;20207;-77
2024/02/07 07:41:44;;;;;;;6.17;3.60;;;9.20;99.90;;;;;;5063360;28;20504;-76
2024/02/07 07:44:10;;;;;;;7.10;3.87;;;9.20;99.90;;;;;;5047515;28;20454;-76
2024/02/07 07:46:36;;;;;;;5.13;3.30;;;9.20;99.90;;;;;;5053167;28;20305;-75
2024/02/07 07:49:02;;;;;;;5.97;3.80;;;9.20;99.90;;;;;;5052913;28;20214;-76
2024/02/07 07:51:27;;;;;;;7.53;3.40;;;9.30;99.90;;;;;;5049224;28;20211;-76
2024/02/07 07:53:54;;;;;;;5.50;3.37;;;9.30;99.90;;;;;;5048241;28;20216;-77
2024/02/07 07:56:20;;;;;;;7.00;4.20;;;9.30;99.90;;;;;;5047130;28;20223;-76
2024/02/07 07:58:49;;;;;;;7.57;3.70;;;9.30;99.90;;;;;;5048451;28;20467;-76
2024/02/07 08:01:19;;;;;;;3.60;3.17;;;9.30;99.90;;;;;;5058150;28;20454;-76
2024/02/07 08:03:45;;;;;;;5.07;3.13;;;9.30;99.90;;;;;;5056288;28;20462;-77
2024/02/07 08:06:11;;;;;;;3.93;3.13;;;9.30;99.90;;;;;;5046702;28;20454;-76
2024/02/07 08:08:37;;;;;;;3.20;2.90;;;9.30;99.90;;;;;;5046091;28;20235;-76
2024/02/07 08:11:03;;;;;;;5.20;3.10;;;9.40;99.90;;;;;;5047125;28;20450;-77
2024/02/07 08:13:29;;;;;;;5.87;4.20;;;9.40;99.90;;;;;;5052015;28;20453;-76
2024/02/07 08:15:54;;;;;;;3.10;2.80;;;9.40;99.90;;;;;;5040731;28;20741;-76
2024/02/07 08:18:20;;;;;;;3.83;3.17;;;9.40;99.90;;;;;;5063168;28;20223;-76
2024/02/07 08:20:46;;;;;;;5.63;3.10;;;9.40;99.90;;;;;;5057658;28;20216;-76
2024/02/07 08:23:12;;;;;;;5.63;3.57;;;9.40;99.90;;;;;;5063978;28;20310;-77
2024/02/07 08:25:38;;;;;;;3.90;3.50;;;9.50;99.90;;;;;;5048443;28;20266;-77
2024/02/07 08:28:04;;;;;;;6.13;3.53;;;9.50;99.90;;;;;;5045723;28;20930;-77
2024/02/07 08:30:29;;;;;;;11.23;3.90;;;9.50;99.90;;;;;;5069933;28;20219;-76
2024/02/07 08:32:56;;;;;;;3.80;3.50;;;9.50;99.90;;;;;;5047068;28;20547;-77
2024/02/07 08:35:22;;;;;;;4.50;3.80;;;9.50;99.90;;;;;;5054876;28;20211;-77
2024/02/07 08:37:47;;;;;;;4.60;3.70;;;9.50;99.90;;;;;;5046717;28;20470;-76
2024/02/07 08:40:13;;;;;;;7.20;4.27;;;9.60;99.90;;;;;;5047361;28;20461;-77
2024/02/07 08:42:39;;;;;;;4.97;3.50;;;9.60;99.90;;;;;;5049574;28;20215;-76
2024/02/07 08:45:05;;;;;;;4.23;3.30;;;9.60;99.90;;;;;;5051101;28;20306;-76
2024/02/07 08:47:30;;;;;;;6.13;3.63;;;9.60;99.90;;;;;;5074038;28;20261;-76
2024/02/07 08:49:56;;;;;;;7.40;3.60;;;9.60;99.90;;;;;;5066354;28;20476;-76
2024/02/07 08:52:22;;;;;;;8.10;3.90;;;9.60;99.90;;;;;;5061590;28;20243;-76
2024/02/07 08:54:48;;;;;;;6.33;2.70;;;9.60;99.90;;;;;;5045982;28;20238;-74
2024/02/07 08:57:14;;;;;;;5.43;3.90;;;9.70;99.90;;;;;;5062272;28;20230;-76
2024/02/07 08:59:40;;;;;;;4.30;3.53;;;9.70;99.90;;;;;;5049416;28;20437;-76
2024/02/07 09:02:09;;;;;;;5.60;3.20;;;9.70;99.90;;;;;;5059532;28;20967;-77
2024/02/07 09:04:34;;;;;;;7.60;4.17;;;9.70;99.90;;;;;;5048550;28;20457;-76
2024/02/07 09:07:00;;;;;;;3.67;3.30;;;9.70;99.90;;;;;;5058817;28;20458;-77
2024/02/07 09:09:26;;;;;;;5.40;4.73;;;9.70;99.90;;;;;;5057714;28;20219;-76
2024/02/07 09:11:52;;;;;;;4.10;3.70;;;9.70;99.90;;;;;;5039930;28;20625;-76
2024/02/07 09:14:18;;;;;;;4.00;3.60;;;9.80;99.90;;;;;;5055034;28;20219;-77
2024/02/07 09:16:45;;;;;;;5.83;4.07;;;9.80;99.90;;;;;;5050637;28;20280;-76
2024/02/07 09:19:11;;;;;;;58.33;28.07;;;9.80;99.90;;;;;;5058072;28;20462;-76
2024/02/07 09:21:36;;;;;;;39.33;22.23;;;9.90;99.90;;;;;;5047739;28;21031;-76
2024/02/07 09:24:04;;;;;;;31.47;17.07;;;9.90;99.90;;;;;;5057706;28;20208;-76
2024/02/07 09:26:30;;;;;;;38.97;19.87;;;9.90;99.90;;;;;;5050797;28;20307;-76
2024/02/07 09:28:56;;;;;;;24.60;17.73;;;9.90;99.90;;;;;;5051197;28;20453;-77
2024/02/07 09:31:22;;;;;;;11.17;8.60;;;9.90;99.90;;;;;;5048493;28;20439;-77
2024/02/07 09:33:47;;;;;;;7.40;4.67;;;9.90;99.90;;;;;;5057608;28;20592;-76
2024/02/07 09:36:13;;;;;;;4.10;3.50;;;9.90;99.90;;;;;;5060206;28;20229;-77
2024/02/07 09:38:39;;;;;;;4.07;3.17;;;10.00;99.90;;;;;;5038042;28;20228;-75
2024/02/07 09:41:07;;;;;;;3.43;2.77;;;10.00;99.90;;;;;;5053295;28;20275;-77
2024/02/07 09:43:33;;;;;;;3.80;2.90;;;10.10;99.90;;;;;;5050883;28;20228;-76
2024/02/07 09:45:59;;;;;;;4.60;3.93;;;10.10;99.90;;;;;;5043880;28;20454;-77
2024/02/07 09:48:26;;;;;;;3.53;2.90;;;10.10;99.90;;;;;;5038807;28;20463;-76
2024/02/07 09:50:59;;;;;;;2.97;2.63;;;10.10;99.90;;;;;;5048327;28;20446;-76
2024/02/07 09:53:26;;;;;;;6.33;2.60;;;10.20;99.90;;;;;;5042915;28;20489;-75
2024/02/07 09:55:55;;;;;;;3.47;2.67;;;10.20;99.90;;;;;;5043896;28;20451;-77
2024/02/07 09:58:23;;;;;;;2.57;2.37;;;10.20;99.90;;;;;;5049175;28;21019;-77
2024/02/07 10:00:52;;;;;;;5.00;2.57;;;10.30;99.90;;;;;;5059099;28;20466;-77
2024/02/07 10:03:25;;;;;;;4.27;2.60;;;10.30;99.90;;;;;;5045180;28;20482;-77
2024/02/07 10:05:55;;;;;;;3.43;2.50;;;10.30;99.90;;;;;;5045436;28;20534;-77
2024/02/07 10:08:23;;;;;;;3.17;2.33;;;10.30;99.90;;;;;;5043525;28;20457;-77
2024/02/07 10:10:48;;;;;;;4.10;3.23;;;10.30;99.90;;;;;;5050198;28;20843;-76
2024/02/07 10:13:15;;;;;;;2.60;2.40;;;10.30;99.90;;;;;;5045911;28;20446;-77
2024/02/07 10:15:45;;;;;;;3.30;2.50;;;10.30;99.90;;;;;;5041695;28;20219;-77
2024/02/07 10:18:11;;;;;;;2.13;1.93;;;10.30;99.90;;;;;;5042565;28;20466;-76
2024/02/07 10:20:37;;;;;;;2.47;2.07;;;10.30;99.90;;;;;;5041235;28;20837;-76
2024/02/07 10:23:07;;;;;;;1.80;1.70;;;10.30;99.90;;;;;;5048051;28;20480;-76
2024/02/07 10:25:33;;;;;;;2.50;2.23;;;10.30;99.90;;;;;;5048290;28;20863;-77
2024/02/07 10:28:06;;;;;;;4.03;2.10;;;10.40;99.90;;;;;;5038609;28;20453;-76
2024/02/07 10:30:32;;;;;;;3.50;2.10;;;10.40;99.90;;;;;;5052191;28;20466;-76
2024/02/07 10:32:58;;;;;;;2.50;2.20;;;10.40;99.90;;;;;;5039408;28;20463;-77
2024/02/07 10:35:24;;;;;;;2.33;1.67;;;10.40;99.90;;;;;;5046219;28;20303;-76
2024/02/07 10:37:55;;;;;;;2.63;2.27;;;10.40;99.90;;;;;;5041279;28;20569;-77
2024/02/07 10:40:21;;;;;;;2.30;1.90;;;10.40;99.90;;;;;;5028039;28;20223;-76
2024/02/07 10:42:55;;;;;;;2.87;1.83;;;10.40;99.90;;;;;;5040665;28;20512;-76
2024/02/07 10:45:20;;;;;;;1.97;1.77;;;10.40;99.90;;;;;;5042760;28;20863;-77
2024/02/07 10:47:46;;;;;;;2.20;2.00;;;10.50;99.90;;;;;;5044975;28;20458;-77
2024/02/07 10:50:12;;;;;;;3.10;1.97;;;10.50;99.90;;;;;;5043257;28;20224;-77
2024/02/07 10:52:41;;;;;;;2.07;1.73;;;10.50;99.90;;;;;;5054114;28;20588;-77
2024/02/07 10:55:09;;;;;;;2.10;1.70;;;10.40;99.90;;;;;;5040713;28;20268;-77
2024/02/07 10:57:39;;;;;;;2.17;1.70;;;10.40;99.90;;;;;;5063199;28;20497;-77
2024/02/07 11:00:06;;;;;;;6.83;6.10;;;10.40;99.90;;;;;;5062094;28;20439;-76
2024/02/07 11:02:34;;;;;;;5.30;4.80;;;10.40;99.90;;;;;;5044963;28;20530;-77
2024/02/07 11:05:01;;;;;;;2.07;1.87;;;10.40;99.90;;;;;;5047666;28;20451;-77
2024/02/07 11:07:27;;;;;;;1.40;1.30;;;10.40;99.90;;;;;;5060391;28;20540;-76
2024/02/07 11:09:54;;;;;;;6.47;1.80;;;10.40;99.90;;;;;;5041665;28;20515;-77
2024/02/07 11:12:20;;;;;;;1.63;1.53;;;10.40;99.90;;;;;;5041477;28;20274;-76
2024/02/07 11:14:50;;;;;;;1.97;1.53;;;10.30;99.90;;;;;;5035339;28;20446;-76
2024/02/07 11:17:17;;;;;;;6.70;2.03;;;10.30;99.90;;;;;;5059094;28;20249;-77
2024/02/07 11:19:43;;;;;;;8.07;5.10;;;10.40;99.90;;;;;;5046191;28;20450;-76
2024/02/07 11:22:18;;;;;;;8.03;5.63;;;10.40;99.90;;;;;;5056109;28;20533;-77
2024/02/07 11:24:45;;;;;;;3.27;2.77;;;10.40;99.90;;;;;;5058893;28;20450;-77
2024/02/07 11:27:12;;;;;;;2.67;2.07;;;10.30;99.90;;;;;;5047600;28;20477;-77
2024/02/07 11:29:40;;;;;;;2.23;2.03;;;10.40;99.90;;;;;;5027602;28;20461;-77
2024/02/07 11:32:09;;;;;;;3.63;2.37;;;10.40;99.90;;;;;;5042586;28;20974;-77
2024/02/07 11:34:41;;;;;;;2.00;1.70;;;10.40;99.90;;;;;;5051767;28;20456;-77
2024/02/07 11:37:10;;;;;;;1.53;1.43;;;10.40;99.90;;;;;;5045831;28;20455;-77
2024/02/07 11:39:38;;;;;;;2.30;2.10;;;10.30;99.90;;;;;;5053395;28;20550;-77
2024/02/07 11:42:14;;;;;;;2.53;2.00;;;10.40;99.90;;;;;;5051000;28;20462;-77
2024/02/07 11:44:55;;;;;;;2.37;1.70;;;10.40;99.90;;;;;;5046447;28;20481;-76
2024/02/07 11:47:27;;;;;;;1.43;1.20;;;10.40;99.90;;;;;;5028751;28;20458;-77
2024/02/07 11:49:58;;;;;;;4.57;2.03;;;10.40;99.90;;;;;;5059941;28;20430;-77
2024/02/07 11:52:31;;;;;;;3.30;1.47;;;10.40;99.90;;;;;;5047036;28;20529;-76
2024/02/07 11:55:04;;;;;;;2.87;2.57;;;10.40;99.90;;;;;;5049654;28;20450;-76
2024/02/07 11:57:34;;;;;;;4.27;3.87;;;10.50;99.90;;;;;;5050755;28;20477;-77
2024/02/07 12:00:05;;;;;;;4.27;3.40;;;10.50;99.90;;;;;;5033174;28;20447;-77
2024/02/07 12:02:31;;;;;;;5.83;4.93;;;10.50;99.90;;;;;;5051931;28;20973;-77
2024/02/07 12:04:57;;;;;;;6.17;5.47;;;10.50;99.90;;;;;;5038305;28;20480;-77
2024/02/07 12:07:24;;;;;;;5.00;4.50;;;10.50;99.90;;;;;;5052438;28;20222;-77
2024/02/07 12:09:50;;;;;;;4.10;3.80;;;10.50;99.90;;;;;;5049174;28;20458;-77
2024/02/07 12:12:16;;;;;;;3.33;2.97;;;10.50;99.90;;;;;;5060143;28;20452;-77
2024/02/07 12:14:42;;;;;;;2.50;2.30;;;10.60;99.90;;;;;;5048613;28;20459;-76
2024/02/07 12:17:08;;;;;;;1.90;1.80;;;10.60;99.90;;;;;;5044923;28;20227;-77
2024/02/07 12:19:37;;;;;;;2.73;2.00;;;10.60;99.90;;;;;;5047885;28;20470;-77
2024/02/07 12:22:03;;;;;;;1.50;1.40;;;10.50;99.90;;;;;;5051323;28;20447;-77
2024/02/07 12:24:33;;;;;;;2.40;1.80;;;10.50;99.90;;;;;;5040745;28;20470;-77
2024/02/07 12:27:08;;;;;;;2.00;1.50;;;10.60;99.90;;;;;;5045764;28;20508;-78
2024/02/07 12:29:34;;;;;;;3.43;1.77;;;10.50;99.90;;;;;;5033311;28;20442;-76
2024/02/07 12:32:01;;;;;;;1.30;1.20;;;10.50;99.90;;;;;;5054451;28;20983;-76
2024/02/07 12:34:27;;;;;;;3.67;1.90;;;10.50;99.90;;;;;;5046490;28;20228;-76
2024/02/07 12:36:53;;;;;;;1.80;1.40;;;10.50;99.90;;;;;;5054343;28;20934;-77
2024/02/07 12:39:22;;;;;;;1.40;1.30;;;10.60;99.90;;;;;;5036606;28;20557;-77
2024/02/07 12:41:47;;;;;;;1.50;1.40;;;10.50;99.90;;;;;;5046899;28;20545;-76
2024/02/07 12:44:15;;;;;;;1.97;1.50;;;10.50;99.90;;;;;;5049083;28;20541;-78
2024/02/07 12:46:41;;;;;;;1.83;1.70;;;10.50;99.90;;;;;;5052135;28;20223;-76
2024/02/07 12:49:10;;;;;;;2.23;2.03;;;10.60;99.90;;;;;;5054232;28;20461;-76
2024/02/07 12:51:35;;;;;;;2.33;1.80;;;10.60;99.90;;;;;;5055112;28;20557;-77
2024/02/07 12:54:01;;;;;;;1.67;1.57;;;10.60;99.90;;;;;;5034323;28;21042;-77
2024/02/07 12:56:27;;;;;;;1.70;1.60;;;10.60;99.90;;;;;;5058584;28;20712;-76
2024/02/07 12:58:53;;;;;;;2.60;1.90;;;10.60;99.90;;;;;;5053484;28;20485;-77
2024/02/07 13:01:23;;;;;;;1.30;1.20;;;10.60;99.90;;;;;;5043981;28;20227;-77
2024/02/07 13:03:49;;;;;;;2.80;1.33;;;10.50;99.90;;;;;;5043006;28;20681;-76
2024/02/07 13:06:17;;;;;;;6.57;1.70;;;10.50;99.90;;;;;;5045735;28;20577;-76
2024/02/07 13:08:43;;;;;;;1.53;1.43;;;10.60;99.90;;;;;;5043245;28;20861;-76
2024/02/07 13:11:09;;;;;;;1.70;1.50;;;10.60;99.90;;;;;;5053006;28;20457;-77
2024/02/07 13:13:34;;;;;;;2.63;2.43;;;10.60;99.90;;;;;;5052833;28;20330;-77
2024/02/07 13:16:00;;;;;;;10.30;5.80;;;10.60;99.90;;;;;;5049627;28;21044;-76
2024/02/07 13:18:26;;;;;;;15.17;9.40;;;10.60;99.90;;;;;;5048352;28;20323;-77
2024/02/07 13:20:52;;;;;;;23.67;18.60;;;10.60;99.90;;;;;;5047487;28;20306;-77
2024/02/07 13:23:21;;;;;;;23.57;18.17;;;10.70;99.90;;;;;;5047176;28;20220;-78
2024/02/07 13:25:50;;;;;;;20.30;13.33;;;10.60;99.90;;;;;;5043302;28;20478;-78
2024/02/07 13:28:16;;;;;;;9.33;8.00;;;10.60;99.90;;;;;;5051372;28;21028;-76
2024/02/07 13:30:42;;;;;;;5.60;4.57;;;10.70;99.90;;;;;;5041970;28;20451;-77
2024/02/07 13:33:08;;;;;;;3.80;3.40;;;10.70;99.90;;;;;;5047138;28;20215;-77
2024/02/07 13:35:33;;;;;;;6.00;3.10;;;10.70;99.90;;;;;;5050982;28;20230;-77
2024/02/07 13:38:02;;;;;;;2.10;2.00;;;10.70;99.90;;;;;;5045407;28;20454;-77
2024/02/07 13:40:28;;;;;;;2.73;1.93;;;10.70;99.90;;;;;;5052525;28;20219;-76
2024/02/07 13:42:53;;;;;;;2.10;1.50;;;10.70;99.90;;;;;;5028255;28;20466;-77
2024/02/07 13:45:19;;;;;;;1.13;1.03;;;10.60;99.90;;;;;;5062182;28;20320;-77
2024/02/07 13:47:48;;;;;;;1.53;1.43;;;10.60;99.90;;;;;;5047803;28;20279;-77
2024/02/07 13:50:14;;;;;;;11.50;7.90;;;10.60;99.90;;;;;;5041700;28;20721;-77
2024/02/07 13:52:40;;;;;;;11.47;8.20;;;10.60;99.90;;;;;;5048699;28;20470;-77
2024/02/07 13:55:06;;;;;;;14.60;10.10;;;10.60;99.90;;;;;;5032867;28;20223;-77
2024/02/07 13:57:31;;;;;;;16.80;12.60;;;10.60;99.90;;;;;;5051818;28;20263;-77